createdAt,value
2023-04-30T00:00:08.708Z,100192.16
2023-04-30T00:02:39.384Z,100192.97
2023-04-30T00:05:07.618Z,100204.06
2023-04-30T00:07:35.231Z,100196.31
2023-04-30T00:10:03.280Z,100188.41
2023-04-30T00:12:32.605Z,100191.38
2023-04-30T00:15:01.587Z,100191.09
2023-04-30T00:17:34.516Z,100197.03
2023-04-30T00:20:02.155Z,100190.06
2023-04-30T00:22:33.389Z,100208.13
2023-04-30T00:25:01.278Z,100208.78
2023-04-30T00:27:30.359Z,100206.03
2023-04-30T00:29:58.566Z,100200.59
2023-04-30T00:32:26.248Z,100217.69
2023-04-30T00:34:53.889Z,100215.94
2023-04-30T00:37:21.453Z,100212.16
2023-04-30T00:39:49.156Z,100212.84
2023-04-30T00:42:16.994Z,100221.50
2023-04-30T00:44:44.640Z,100214.44
2023-04-30T00:47:12.304Z,100222.03
2023-04-30T00:49:39.906Z,100209.78
2023-04-30T00:52:07.379Z,100220.88
2023-04-30T00:54:35.034Z,100206.09
2023-04-30T00:57:03.129Z,100206.88
2023-04-30T00:59:31.666Z,100205.03
2023-04-30T01:01:59.410Z,100211.81
2023-04-30T01:04:27.594Z,100225.41
2023-04-30T01:06:56.799Z,100214.03
2023-04-30T01:09:24.571Z,100218.34
2023-04-30T01:12:02.077Z,100207.31
2023-04-30T01:14:54.789Z,100217.66
2023-04-30T01:17:39.578Z,100219.13
2023-04-30T01:20:09.886Z,100217.56
2023-04-30T01:22:50.899Z,100216.66
2023-04-30T01:25:21.187Z,100228.56
2023-04-30T01:28:03.768Z,100223.44
2023-04-30T01:30:32.960Z,100210.88
2023-04-30T01:33:01.002Z,100218.69
2023-04-30T01:35:51.676Z,100221.78
2023-04-30T01:38:37.929Z,100236.22
2023-04-30T01:41:37.928Z,100230.16
2023-04-30T01:45:03.200Z,100229.63
2023-04-30T01:48:23.882Z,100233.94
2023-04-30T01:50:56.944Z,100225.84
2023-04-30T01:53:33.254Z,100225.75
2023-04-30T01:56:08.470Z,100220.44
2023-04-30T01:58:37.935Z,100225.75
2023-04-30T02:01:05.679Z,100220.66
2023-04-30T02:03:33.909Z,100223.13
2023-04-30T02:06:01.847Z,100224.97
2023-04-30T02:08:29.509Z,100214.91
2023-04-30T02:10:57.140Z,100213.44
2023-04-30T02:13:24.837Z,100216.34
2023-04-30T02:15:52.614Z,100207.00
2023-04-30T02:18:20.147Z,100205.75
2023-04-30T02:20:47.802Z,100203.44
2023-04-30T02:23:16.309Z,100195.88
2023-04-30T02:25:43.925Z,100198.75
2023-04-30T02:28:11.443Z,100189.53
2023-04-30T02:30:39.383Z,100188.09
2023-04-30T02:33:07.247Z,100191.06
2023-04-30T02:35:34.917Z,100194.75
2023-04-30T02:38:02.410Z,100178.88
2023-04-30T02:40:29.999Z,100181.00
2023-04-30T02:42:57.590Z,100179.94
2023-04-30T02:45:25.189Z,100183.66
2023-04-30T02:47:52.714Z,100174.28
2023-04-30T02:50:20.379Z,100175.56
2023-04-30T02:52:47.836Z,100166.38
2023-04-30T02:55:15.592Z,100165.91
2023-04-30T02:57:43.218Z,100167.91
2023-04-30T03:00:11.453Z,100173.44
2023-04-30T03:02:39.691Z,100162.63
2023-04-30T03:05:07.569Z,100157.91
2023-04-30T03:07:35.133Z,100156.09
2023-04-30T03:10:02.994Z,100161.03
2023-04-30T03:12:31.570Z,100170.22
2023-04-30T03:14:59.030Z,100162.97
2023-04-30T03:17:26.662Z,100162.84
2023-04-30T03:19:54.415Z,100162.53
2023-04-30T03:22:24.089Z,100159.41
2023-04-30T03:24:51.774Z,100166.16
2023-04-30T03:27:19.355Z,100147.56
2023-04-30T03:29:47.176Z,100162.00
2023-04-30T03:32:14.757Z,100159.25
2023-04-30T03:34:42.388Z,100159.97
2023-04-30T03:37:09.923Z,100150.13
2023-04-30T03:39:37.479Z,100133.59
2023-04-30T03:42:05.079Z,100130.81
2023-04-30T03:44:32.689Z,100133.78
2023-04-30T03:47:00.229Z,100134.53
2023-04-30T03:49:27.891Z,100147.97
2023-04-30T03:51:55.629Z,100139.78
2023-04-30T03:54:23.203Z,100134.97
2023-04-30T03:56:50.946Z,100127.44
2023-04-30T03:59:19.441Z,100133.22
2023-04-30T04:01:47.181Z,100123.31
2023-04-30T04:04:14.970Z,100134.06
2023-04-30T04:06:43.881Z,100129.31
2023-04-30T04:09:11.626Z,100125.28
2023-04-30T04:11:42.520Z,100124.56
2023-04-30T04:14:10.091Z,100123.31
2023-04-30T04:16:37.821Z,100116.00
2023-04-30T04:19:06.768Z,100108.28
2023-04-30T04:21:34.730Z,100115.28
2023-04-30T04:24:08.883Z,100115.50
2023-04-30T04:26:37.916Z,100122.41
2023-04-30T04:29:05.797Z,100122.53
2023-04-30T04:31:33.380Z,100120.78
2023-04-30T04:34:04.607Z,100115.94
2023-04-30T04:36:34.233Z,100104.84
2023-04-30T04:39:02.565Z,100100.63
2023-04-30T04:41:34.268Z,100109.59
2023-04-30T04:44:04.400Z,100106.38
2023-04-30T04:46:32.424Z,100099.06
2023-04-30T04:49:00.260Z,100097.28
2023-04-30T04:51:27.913Z,100111.97
2023-04-30T04:53:55.634Z,100109.47
2023-04-30T04:56:23.402Z,100106.88
2023-04-30T04:58:50.997Z,100107.53
2023-04-30T05:01:18.774Z,100103.16
2023-04-30T05:03:48.922Z,100099.94
2023-04-30T05:06:16.737Z,100107.84
2023-04-30T05:08:44.238Z,100115.75
2023-04-30T05:11:14.128Z,100102.88
2023-04-30T05:13:42.993Z,100107.44
2023-04-30T05:16:10.547Z,100101.75
2023-04-30T05:18:38.288Z,100095.34
2023-04-30T05:21:05.853Z,100086.38
2023-04-30T05:23:33.475Z,100098.91
2023-04-30T05:26:01.113Z,100094.00
2023-04-30T05:28:28.609Z,100090.66
2023-04-30T05:30:56.234Z,100087.41
2023-04-30T05:33:23.815Z,100092.97
2023-04-30T05:35:51.302Z,100097.78
2023-04-30T05:38:18.962Z,100093.88
2023-04-30T05:40:46.573Z,100084.78
2023-04-30T05:43:14.175Z,100093.16
2023-04-30T05:45:41.762Z,100088.88
2023-04-30T05:48:09.404Z,100083.59
2023-04-30T05:50:36.865Z,100075.00
2023-04-30T05:53:04.462Z,100070.69
2023-04-30T05:55:32.206Z,100080.34
2023-04-30T05:57:59.781Z,100087.56
2023-04-30T06:00:27.250Z,100086.59
2023-04-30T06:02:54.916Z,100079.94
2023-04-30T06:05:22.479Z,100094.03
2023-04-30T06:07:50.098Z,100095.44
2023-04-30T06:10:17.595Z,100094.78
2023-04-30T06:12:45.169Z,100105.28
2023-04-30T06:15:12.662Z,100102.72
2023-04-30T06:17:40.425Z,100096.94
2023-04-30T06:20:08.659Z,100107.53
2023-04-30T06:22:36.874Z,100102.53
2023-04-30T06:25:04.807Z,100098.19
2023-04-30T06:27:33.639Z,100099.59
2023-04-30T06:30:01.316Z,100099.06
2023-04-30T06:32:33.173Z,100092.53
2023-04-30T06:35:00.802Z,100093.00
2023-04-30T06:37:28.375Z,100098.63
2023-04-30T06:39:56.170Z,100091.91
2023-04-30T06:42:24.245Z,100084.59
2023-04-30T06:44:51.851Z,100081.34
2023-04-30T06:47:19.335Z,100084.06
2023-04-30T06:49:46.873Z,100076.16
2023-04-30T06:52:14.316Z,100077.03
2023-04-30T06:54:43.053Z,100067.53
2023-04-30T06:57:10.713Z,100072.75
2023-04-30T06:59:38.865Z,100064.97
2023-04-30T07:02:06.552Z,100061.91
2023-04-30T07:04:34.021Z,100053.72
2023-04-30T07:07:05.235Z,100046.09
2023-04-30T07:09:36.632Z,100047.19
2023-04-30T07:12:04.395Z,100048.97
2023-04-30T07:14:31.946Z,100045.63
2023-04-30T07:16:59.610Z,100036.25
2023-04-30T07:19:27.139Z,100040.72
2023-04-30T07:21:54.836Z,100037.97
2023-04-30T07:24:22.784Z,100039.47
2023-04-30T07:26:50.482Z,100024.56
2023-04-30T07:29:18.425Z,100026.16
2023-04-30T07:31:46.144Z,100026.03
2023-04-30T07:34:13.774Z,100016.28
2023-04-30T07:36:41.536Z,100017.66
2023-04-30T07:39:09.190Z,100009.56
2023-04-30T07:41:36.739Z,100001.91
2023-04-30T07:44:04.303Z,99990.94
2023-04-30T07:46:32.253Z,99988.50
2023-04-30T07:48:59.810Z,99977.25
2023-04-30T07:51:27.541Z,99966.09
2023-04-30T07:53:55.288Z,99963.56
2023-04-30T07:56:23.049Z,99959.16
2023-04-30T07:58:50.636Z,99955.59
2023-04-30T08:01:18.344Z,99944.88
2023-04-30T08:03:46.672Z,99952.41
2023-04-30T08:06:14.612Z,99953.97
2023-04-30T08:08:42.205Z,99935.28
2023-04-30T08:11:09.903Z,99929.69
2023-04-30T08:13:37.456Z,99929.28
2023-04-30T08:16:05.558Z,99933.44
2023-04-30T08:18:33.261Z,99925.34
2023-04-30T08:21:01.582Z,99924.06
2023-04-30T08:23:29.179Z,99908.25
2023-04-30T08:25:56.746Z,99916.06
2023-04-30T08:28:24.322Z,99916.00
2023-04-30T08:30:51.842Z,99897.00
2023-04-30T08:33:19.657Z,99891.84
2023-04-30T08:35:47.176Z,99897.25
2023-04-30T08:38:14.846Z,99887.00
2023-04-30T08:40:51.473Z,99885.34
2023-04-30T08:43:20.540Z,99881.88
2023-04-30T08:45:50.505Z,99868.09
2023-04-30T08:48:19.278Z,99885.38
2023-04-30T08:50:46.917Z,99874.03
2023-04-30T08:53:17.514Z,99862.75
2023-04-30T08:55:45.494Z,99873.03
2023-04-30T08:58:13.204Z,99858.28
2023-04-30T09:00:41.918Z,99848.69
2023-04-30T09:03:09.695Z,99846.03
2023-04-30T09:05:38.509Z,99840.69
2023-04-30T09:08:08.726Z,99851.91
2023-04-30T09:10:36.423Z,99839.75
2023-04-30T09:13:12.187Z,99829.13
2023-04-30T09:15:46.029Z,99840.09
2023-04-30T09:18:17.890Z,99833.09
2023-04-30T09:21:03.728Z,99829.84
2023-04-30T09:23:31.434Z,99820.94
2023-04-30T09:25:59.014Z,99804.69
2023-04-30T09:28:28.988Z,99814.31
2023-04-30T09:30:57.962Z,99805.88
2023-04-30T09:33:25.710Z,99806.84
2023-04-30T09:35:53.498Z,99792.28
2023-04-30T09:38:32.355Z,99792.41
2023-04-30T09:41:01.980Z,99783.63
2023-04-30T09:43:30.608Z,99776.72
2023-04-30T09:45:59.864Z,99774.03
2023-04-30T09:48:31.694Z,99774.03
2023-04-30T09:51:03.875Z,99774.91
2023-04-30T09:53:33.638Z,99768.88
2023-04-30T09:56:07.039Z,99768.09
2023-04-30T09:58:38.902Z,99758.63
2023-04-30T10:01:08.584Z,99761.03
2023-04-30T10:03:36.804Z,99763.63
2023-04-30T10:06:04.585Z,99763.63
2023-04-30T10:08:38.313Z,99767.78
2023-04-30T10:11:08.460Z,99765.94
2023-04-30T10:13:47.167Z,99768.63
2023-04-30T10:16:30.268Z,99763.53
2023-04-30T10:19:03.852Z,99767.66
2023-04-30T10:21:32.693Z,99767.66
2023-04-30T10:24:00.564Z,99763.38
2023-04-30T10:26:29.451Z,99772.81
2023-04-30T10:29:01.029Z,99773.53
2023-04-30T10:31:30.815Z,99772.72
2023-04-30T10:34:29.434Z,99771.19
2023-04-30T10:37:01.300Z,99760.78
2023-04-30T10:39:29.514Z,99766.22
2023-04-30T10:42:05.300Z,99769.06
2023-04-30T10:44:35.126Z,99767.31
2023-04-30T10:47:04.680Z,99773.44
2023-04-30T10:49:33.052Z,99757.94
2023-04-30T10:52:27.827Z,99762.47
2023-04-30T10:54:55.718Z,99757.91
2023-04-30T10:57:23.236Z,99769.06
2023-04-30T10:59:50.759Z,99772.50
2023-04-30T11:02:18.378Z,99771.66
2023-04-30T11:05:08.034Z,99781.50
2023-04-30T11:07:36.259Z,99764.16
2023-04-30T11:10:04.211Z,99773.06
2023-04-30T11:12:31.928Z,99769.63
2023-04-30T11:15:11.865Z,99775.94
2023-04-30T11:17:40.021Z,99753.59
2023-04-30T11:20:13.586Z,99744.31
2023-04-30T11:22:41.465Z,99734.16
2023-04-30T11:25:11.415Z,99726.63
2023-04-30T11:27:43.046Z,99715.56
2023-04-30T11:30:18.371Z,99698.81
2023-04-30T11:32:48.334Z,99694.75
2023-04-30T11:35:19.910Z,99695.25
2023-04-30T11:37:48.484Z,99688.50
2023-04-30T11:40:16.106Z,99676.38
2023-04-30T11:42:46.171Z,99679.84
2023-04-30T11:45:23.641Z,99675.41
2023-04-30T11:47:54.831Z,99688.09
2023-04-30T11:50:29.411Z,99680.69
2023-04-30T11:52:59.386Z,99670.78
2023-04-30T11:55:28.566Z,99678.31
2023-04-30T11:57:58.763Z,99673.06
2023-04-30T12:00:31.683Z,99667.91
2023-04-30T12:03:03.877Z,99663.69
2023-04-30T12:05:31.885Z,99663.00
2023-04-30T12:08:13.066Z,99661.28
2023-04-30T12:10:40.633Z,99646.47
2023-04-30T12:13:08.286Z,99648.94
2023-04-30T12:15:37.188Z,99646.09
2023-04-30T12:18:13.722Z,99651.34
2023-04-30T12:20:42.445Z,99650.25
2023-04-30T12:23:10.508Z,99649.38
2023-04-30T12:25:43.202Z,99650.09
2023-04-30T12:28:12.058Z,99651.63
2023-04-30T12:30:39.642Z,99656.50
2023-04-30T12:33:11.066Z,99656.13
2023-04-30T12:35:43.361Z,99662.78
2023-04-30T12:38:11.585Z,99660.06
2023-04-30T12:40:39.132Z,99659.03
2023-04-30T12:43:08.566Z,99657.22
2023-04-30T12:45:53.895Z,99662.56
2023-04-30T12:48:24.556Z,99662.31
2023-04-30T12:51:03.232Z,99668.47
2023-04-30T12:53:32.268Z,99665.72
2023-04-30T12:56:17.583Z,99666.56
2023-04-30T12:58:48.680Z,99662.91
2023-04-30T13:01:24.632Z,99665.25
2023-04-30T13:03:53.874Z,99661.63
2023-04-30T13:06:25.292Z,99652.06
2023-04-30T13:11:24.361Z,99649.34
2023-04-30T13:13:52.097Z,99651.94
2023-04-30T13:16:19.968Z,99637.97
2023-04-30T13:18:47.739Z,99637.94
2023-04-30T13:21:15.706Z,99642.91
2023-04-30T13:23:51.956Z,99642.59
2023-04-30T13:26:22.248Z,99638.03
2023-04-30T13:28:50.487Z,99640.47
2023-04-30T13:31:18.541Z,99632.53
2023-04-30T13:33:46.451Z,99642.69
2023-04-30T13:36:14.410Z,99631.50
2023-04-30T13:38:42.302Z,99629.94
2023-04-30T13:41:09.781Z,99617.00
2023-04-30T13:43:41.491Z,99615.13
2023-04-30T13:46:10.162Z,99611.66
2023-04-30T13:48:37.914Z,99608.28
2023-04-30T13:51:05.703Z,99602.16
2023-04-30T13:53:33.351Z,99591.81
2023-04-30T13:56:01.054Z,99580.63
2023-04-30T13:58:28.730Z,99581.44
2023-04-30T14:00:56.733Z,99570.09
2023-04-30T14:03:24.482Z,99581.88
2023-04-30T14:05:52.588Z,99569.66
2023-04-30T14:08:22.573Z,99567.84
2023-04-30T14:10:51.472Z,99566.81
2023-04-30T14:13:19.157Z,99561.56
2023-04-30T14:15:47.904Z,99558.00
2023-04-30T14:18:15.797Z,99549.38
2023-04-30T14:20:43.529Z,99552.72
2023-04-30T14:23:11.135Z,99546.75
2023-04-30T14:25:38.941Z,99530.22
2023-04-30T14:28:06.560Z,99524.28
2023-04-30T14:30:34.078Z,99520.66
2023-04-30T14:33:01.767Z,99525.06
2023-04-30T14:35:29.465Z,99533.53
2023-04-30T14:37:57.056Z,99526.56
2023-04-30T14:40:24.592Z,99524.00
2023-04-30T14:42:52.770Z,99507.72
2023-04-30T14:45:20.817Z,99503.31
2023-04-30T14:47:48.832Z,99500.72
2023-04-30T14:50:16.684Z,99494.75
2023-04-30T14:52:44.293Z,99496.34
2023-04-30T14:55:11.934Z,99482.63
2023-04-30T14:57:39.786Z,99485.13
2023-04-30T15:00:08.143Z,99484.06
2023-04-30T15:02:36.392Z,99472.81
2023-04-30T15:05:08.738Z,99477.09
2023-04-30T15:07:36.986Z,99474.34
2023-04-30T15:10:05.833Z,99473.47
2023-04-30T15:12:34.608Z,99465.66
2023-04-30T15:15:05.967Z,99456.16
2023-04-30T15:17:36.977Z,99463.88
2023-04-30T15:20:06.531Z,99452.63
2023-04-30T15:22:35.593Z,99453.47
2023-04-30T15:25:04.012Z,99450.81
2023-04-30T15:27:33.937Z,99446.50
2023-04-30T15:30:01.911Z,99444.69
2023-04-30T15:32:32.290Z,99428.25
2023-04-30T15:34:59.926Z,99437.66
2023-04-30T15:37:27.593Z,99433.34
2023-04-30T15:39:55.406Z,99422.97
2023-04-30T15:42:23.131Z,99417.81
2023-04-30T15:44:50.663Z,99416.84
2023-04-30T15:47:18.998Z,99422.81
2023-04-30T15:49:48.434Z,99411.50
2023-04-30T15:52:16.162Z,99408.75
2023-04-30T15:54:43.749Z,99403.47
2023-04-30T15:57:11.626Z,99405.94
2023-04-30T15:59:39.156Z,99391.19
2023-04-30T16:02:06.933Z,99389.44
2023-04-30T16:04:34.498Z,99385.97
2023-04-30T16:07:02.303Z,99380.66
2023-04-30T16:09:30.000Z,99373.63
2023-04-30T16:11:58.141Z,99375.25
2023-04-30T16:14:25.656Z,99357.88
2023-04-30T16:16:53.381Z,99368.28
2023-04-30T16:19:20.906Z,99363.81
2023-04-30T16:21:48.652Z,99354.25
2023-04-30T16:24:16.462Z,99356.72
2023-04-30T16:26:44.081Z,99356.59
2023-04-30T16:29:11.684Z,99348.84
2023-04-30T16:31:39.511Z,99335.88
2023-04-30T16:34:11.354Z,99315.28
2023-04-30T16:36:39.446Z,99322.88
2023-04-30T16:39:06.983Z,99305.63
2023-04-30T16:41:34.599Z,99308.13
2023-04-30T16:44:02.684Z,99298.56
2023-04-30T16:46:30.477Z,99297.63
2023-04-30T16:48:58.325Z,99275.91
2023-04-30T16:51:27.353Z,99284.41
2023-04-30T16:53:55.035Z,99285.97
2023-04-30T16:56:22.684Z,99292.53
2023-04-30T16:58:50.298Z,99291.50
2023-04-30T17:01:17.875Z,99303.38
2023-04-30T17:03:46.419Z,99307.59
2023-04-30T17:06:14.546Z,99303.19
2023-04-30T17:08:42.223Z,99311.72
2023-04-30T17:11:10.113Z,99320.00
2023-04-30T17:13:37.820Z,99304.38
2023-04-30T17:16:05.905Z,99315.47
2023-04-30T17:18:33.513Z,99312.81
2023-04-30T17:21:01.342Z,99314.47
2023-04-30T17:23:28.923Z,99309.97
2023-04-30T17:25:56.584Z,99313.16
2023-04-30T17:28:24.407Z,99312.91
2023-04-30T17:30:52.669Z,99319.59
2023-04-30T17:33:20.319Z,99308.19
2023-04-30T17:35:47.789Z,99308.88
2023-04-30T17:38:15.842Z,99301.94
2023-04-30T17:40:43.364Z,99295.75
2023-04-30T17:43:11.516Z,99295.69
2023-04-30T17:45:39.086Z,99295.53
2023-04-30T17:48:07.661Z,99297.13
2023-04-30T17:50:36.217Z,99306.50
2023-04-30T17:53:03.999Z,99298.75
2023-04-30T17:55:31.531Z,99305.50
2023-04-30T17:57:59.622Z,99285.47
2023-04-30T18:00:27.183Z,99292.28
2023-04-30T18:02:54.923Z,99279.22
2023-04-30T18:05:22.654Z,99278.28
2023-04-30T18:07:50.240Z,99277.44
2023-04-30T18:10:18.018Z,99263.56
2023-04-30T18:12:45.866Z,99280.69
2023-04-30T18:15:15.302Z,99266.97
2023-04-30T18:17:42.997Z,99253.94
2023-04-30T18:20:12.442Z,99261.00
2023-04-30T18:22:43.559Z,99248.13
2023-04-30T18:25:13.167Z,99253.19
2023-04-30T18:27:41.192Z,99247.06
2023-04-30T18:30:09.854Z,99249.63
2023-04-30T18:32:37.885Z,99245.34
2023-04-30T18:35:05.884Z,99244.50
2023-04-30T18:37:33.973Z,99244.47
2023-04-30T18:40:01.640Z,99231.59
2023-04-30T18:42:33.519Z,99245.41
2023-04-30T18:45:02.294Z,99243.84
2023-04-30T18:47:33.787Z,99238.81
2023-04-30T18:50:01.843Z,99238.78
2023-04-30T18:52:30.581Z,99238.59
2023-04-30T18:54:58.252Z,99232.69
2023-04-30T18:57:25.743Z,99234.47
2023-04-30T18:59:53.913Z,99242.13
2023-04-30T19:02:24.415Z,99231.88
2023-04-30T19:04:52.443Z,99216.34
2023-04-30T19:07:20.057Z,99219.03
2023-04-30T19:09:48.567Z,99215.41
2023-04-30T19:12:16.164Z,99207.69
2023-04-30T19:14:44.592Z,99197.44
2023-04-30T19:17:13.033Z,99195.75
2023-04-30T19:19:43.274Z,99191.44
2023-04-30T19:22:11.749Z,99193.94
2023-04-30T19:24:39.294Z,99185.34
2023-04-30T19:27:06.873Z,99171.41
2023-04-30T19:29:34.376Z,99161.31
2023-04-30T19:32:04.603Z,99150.13
2023-04-30T19:34:32.400Z,99152.00
2023-04-30T19:37:00.642Z,99156.28
2023-04-30T19:39:32.122Z,99156.25
2023-04-30T19:41:59.839Z,99150.22
2023-04-30T19:44:29.462Z,99140.66
2023-04-30T19:46:57.822Z,99151.78
2023-04-30T19:49:26.565Z,99140.84
2023-04-30T19:51:54.941Z,99138.16
2023-04-30T19:54:22.700Z,99145.13
2023-04-30T19:56:53.025Z,99134.91
2023-04-30T19:59:20.958Z,99140.03
2023-04-30T20:01:48.785Z,99128.84
2023-04-30T20:04:16.732Z,99128.94
2023-04-30T20:06:45.067Z,99112.59
2023-04-30T20:09:12.962Z,99121.34
2023-04-30T20:11:40.549Z,99110.97
2023-04-30T20:14:08.307Z,99110.19
2023-04-30T20:16:36.072Z,99107.59
2023-04-30T20:19:04.559Z,99088.59
2023-04-30T20:21:32.358Z,99091.25
2023-04-30T20:24:00.353Z,99088.63
2023-04-30T20:26:29.358Z,99077.53
2023-04-30T20:28:57.283Z,99067.94
2023-04-30T20:31:24.988Z,99072.31
2023-04-30T20:33:52.669Z,99059.34
2023-04-30T20:36:20.423Z,99055.84
2023-04-30T20:38:48.748Z,99059.25
2023-04-30T20:41:16.346Z,99063.44
2023-04-30T20:43:43.805Z,99065.94
2023-04-30T20:46:13.933Z,99070.31
2023-04-30T20:48:41.617Z,99062.56
2023-04-30T20:51:10.470Z,99061.66
2023-04-30T20:53:38.185Z,99048.78
2023-04-30T20:56:05.887Z,99048.00
2023-04-30T20:58:33.574Z,99040.25
2023-04-30T21:01:01.237Z,99033.47
2023-04-30T21:03:28.869Z,99021.44
2023-04-30T21:05:56.452Z,99018.09
2023-04-30T21:08:24.086Z,99006.16
2023-04-30T21:10:51.742Z,98998.44
2023-04-30T21:13:19.528Z,98991.66
2023-04-30T21:15:48.806Z,98992.53
2023-04-30T21:18:16.702Z,98999.25
2023-04-30T21:20:44.402Z,99002.72
2023-04-30T21:23:12.821Z,99005.28
2023-04-30T21:25:40.779Z,99005.28
2023-04-30T21:28:08.553Z,99008.81
2023-04-30T21:30:37.135Z,98995.09
2023-04-30T21:33:04.858Z,99005.53
2023-04-30T21:35:33.273Z,99005.53
2023-04-30T21:38:01.202Z,99003.88
2023-04-30T21:40:32.428Z,98989.44
2023-04-30T21:43:01.641Z,98972.19
2023-04-30T21:45:31.682Z,98972.19
2023-04-30T21:47:59.393Z,98982.41
2023-04-30T21:50:28.304Z,98989.31
2023-04-30T21:52:56.068Z,99002.13
2023-04-30T21:55:23.670Z,98997.78
2023-04-30T21:57:51.703Z,99003.81
2023-04-30T22:00:19.553Z,99007.28
2023-04-30T22:02:50.890Z,99002.19
2023-04-30T22:05:19.841Z,98999.69
2023-04-30T22:07:48.328Z,99005.69
2023-04-30T22:10:16.148Z,99000.63
2023-04-30T22:12:47.380Z,98994.66
2023-04-30T22:15:15.971Z,98997.28
2023-04-30T22:17:43.789Z,98999.84
2023-04-30T22:20:11.741Z,98999.88
2023-04-30T22:22:39.553Z,98996.41
2023-04-30T22:25:09.185Z,98999.06
2023-04-30T22:27:37.254Z,99001.69
2023-04-30T22:30:06.179Z,98992.09
2023-04-30T22:32:34.539Z,98999.06
2023-04-30T22:35:03.180Z,98996.59
2023-04-30T22:37:33.116Z,98982.81
2023-04-30T22:40:00.717Z,98976.94
2023-04-30T22:42:28.993Z,98982.16
2023-04-30T22:44:57.545Z,98977.84
2023-04-30T22:47:27.577Z,98993.19
2023-04-30T22:49:56.521Z,98989.78
2023-04-30T22:52:26.052Z,98978.56
2023-04-30T22:54:53.827Z,98964.13
2023-04-30T22:57:22.902Z,98961.50
2023-04-30T22:59:50.690Z,98969.25
2023-04-30T23:02:20.303Z,98965.69
2023-04-30T23:04:48.461Z,98971.72
2023-04-30T23:07:16.385Z,98972.56
2023-04-30T23:09:45.259Z,98965.69
2023-04-30T23:12:12.960Z,98963.13
2023-04-30T23:14:40.452Z,98969.16
2023-04-30T23:17:08.142Z,98949.41
2023-04-30T23:19:38.576Z,98946.94
2023-04-30T23:22:06.320Z,98929.00
2023-04-30T23:24:35.973Z,98924.72
2023-04-30T23:27:03.722Z,98930.75
2023-04-30T23:29:31.635Z,98939.25
2023-04-30T23:31:59.606Z,98922.97
2023-04-30T23:34:27.432Z,98924.72
2023-04-30T23:36:55.022Z,98916.00
2023-04-30T23:39:24.471Z,98910.06
2023-04-30T23:41:55.071Z,98923.69
2023-04-30T23:44:22.619Z,98919.44
2023-04-30T23:46:51.086Z,98904.88
2023-04-30T23:49:19.109Z,98895.44
2023-04-30T23:51:47.095Z,98882.69
2023-04-30T23:54:15.064Z,98873.22
2023-04-30T23:56:42.690Z,98886.94
2023-04-30T23:59:10.236Z,98893.69
